Lower Laposada, New Mexico
Current Conditions -  °F | °C
As of 4:53 AM on Monday 20 Oct 2014 (Local Time) from KLVS Reporting Station
Clear Clear  
Wind Chill: 47°   Ceiling: Unl
Heat Index: 47°   Visibility: 10mi
Dew Point: 39°   Wind: 3mph
Humidity: 74%   Direction: 240°WSW
Pressure: 30.24"   Gusts: NA
Location:  35.582°N, 105.558°W
Report Text: KLVS 201053Z AUTO 24003KT 10SM CLR 08/04 A3024 RMK AO2 SLP167 T00830039
Loading
Personal Weather Stations






























Interactive Weather Map
Tropical Storm Tracking
New forecast layout! Learn more

10-Day Weather Forecast

Advertisements
Track Severe Weather on mobile